createdAt,value
2022-08-14T00:02:21.787Z,25.61
2022-08-14T00:04:55.133Z,25.62
2022-08-14T00:07:26.433Z,25.61
2022-08-14T00:10:49.803Z,25.57
2022-08-14T00:12:56.483Z,25.51
2022-08-14T00:15:30.042Z,25.53
2022-08-14T00:18:30.756Z,25.54
2022-08-14T00:21:11.180Z,25.51
2022-08-14T00:23:42.205Z,25.48
2022-08-14T00:26:22.085Z,25.54
2022-08-14T00:28:54.775Z,25.55
2022-08-14T00:31:35.053Z,25.56
2022-08-14T00:34:36.031Z,25.60
2022-08-14T00:37:06.146Z,25.63
2022-08-14T00:39:38.362Z,25.70
2022-08-14T00:42:21.210Z,25.76
2022-08-14T00:44:59.761Z,25.79
2022-08-14T00:47:31.439Z,25.84
2022-08-14T00:50:17.496Z,25.83
2022-08-14T00:52:50.848Z,25.83
2022-08-14T00:55:21.950Z,25.83
2022-08-14T00:58:07.820Z,25.83
2022-08-14T01:00:51.373Z,25.90
2022-08-14T01:03:30.723Z,25.90
2022-08-14T01:06:01.464Z,25.85
2022-08-14T01:08:57.414Z,25.77
2022-08-14T01:11:35.633Z,25.75
2022-08-14T01:14:25.284Z,25.85
2022-08-14T01:16:57.711Z,25.79
2022-08-14T01:20:00.493Z,25.51
2022-08-14T01:22:31.131Z,25.40
2022-08-14T01:25:02.679Z,25.34
2022-08-14T01:27:36.721Z,25.34
2022-08-14T01:30:26.574Z,25.17
2022-08-14T01:32:56.900Z,25.13
2022-08-14T01:36:03.910Z,25.29
2022-08-14T01:38:19.048Z,25.27
2022-08-14T01:40:53.238Z,25.26
2022-08-14T01:43:30.599Z,25.39
2022-08-14T01:46:24.412Z,25.40
2022-08-14T01:48:57.474Z,25.31
2022-08-14T01:51:30.476Z,25.34
2022-08-14T01:54:02.017Z,25.33
2022-08-14T01:56:39.130Z,25.30
2022-08-14T01:59:18.085Z,25.26
2022-08-14T02:01:51.206Z,25.26
2022-08-14T02:04:55.996Z,25.28
2022-08-14T02:07:44.706Z,25.34
2022-08-14T02:10:15.601Z,25.27
2022-08-14T02:12:56.887Z,25.26
2022-08-14T02:15:27.895Z,25.48
2022-08-14T02:18:01.914Z,25.33
2022-08-14T02:20:34.169Z,25.24
2022-08-14T02:23:06.551Z,25.14
2022-08-14T02:25:39.448Z,25.19
2022-08-14T02:28:22.971Z,25.27
2022-08-14T02:31:02.090Z,25.33
2022-08-14T02:33:33.900Z,25.37
2022-08-14T02:37:03.421Z,25.42
2022-08-14T02:39:01.539Z,25.48
2022-08-14T02:41:36.751Z,25.43
2022-08-14T02:44:11.340Z,25.52
2022-08-14T02:46:44.865Z,25.50
2022-08-14T02:49:34.148Z,25.49
2022-08-14T02:52:55.451Z,25.51
2022-08-14T02:54:58.276Z,25.53
2022-08-14T02:57:40.387Z,25.42
2022-08-14T03:00:18.551Z,25.25
2022-08-14T03:02:59.089Z,25.18
2022-08-14T03:05:36.266Z,25.12
2022-08-14T03:08:08.839Z,25.27
2022-08-14T03:10:41.974Z,25.05
2022-08-14T03:13:21.476Z,25.04
2022-08-14T03:15:56.213Z,24.98
2022-08-14T03:18:31.772Z,25.05
2022-08-14T03:21:05.586Z,25.08
2022-08-14T03:23:38.660Z,25.01
2022-08-14T03:26:13.191Z,24.98
2022-08-14T03:28:49.878Z,25.18
2022-08-14T03:31:25.986Z,25.20
2022-08-14T03:34:00.113Z,25.18
2022-08-14T03:37:39.494Z,25.03
2022-08-14T03:39:24.223Z,24.85
2022-08-14T03:42:01.513Z,25.00
2022-08-14T03:45:26.801Z,24.98
2022-08-14T03:47:33.666Z,24.86
2022-08-14T03:50:30.766Z,24.98
2022-08-14T03:53:03.682Z,25.19
2022-08-14T03:55:34.000Z,25.07
2022-08-14T03:58:04.815Z,25.00
2022-08-14T04:00:44.244Z,24.99
2022-08-14T04:03:23.497Z,25.05
2022-08-14T04:05:55.264Z,25.20
2022-08-14T04:08:30.847Z,25.37
2022-08-14T04:11:08.005Z,25.25
2022-08-14T04:13:42.321Z,25.19
2022-08-14T04:16:13.425Z,25.25
2022-08-14T04:18:45.619Z,25.10
2022-08-14T04:21:16.976Z,24.97
2022-08-14T04:23:57.007Z,24.88
2022-08-14T04:26:42.200Z,25.05
2022-08-14T04:29:16.064Z,25.17
2022-08-14T04:33:02.925Z,25.30
2022-08-14T04:34:42.164Z,25.40
2022-08-14T04:37:30.251Z,25.56
2022-08-14T04:40:18.806Z,25.35
2022-08-14T04:43:06.564Z,25.31
2022-08-14T04:45:41.071Z,25.41
2022-08-14T04:48:39.746Z,25.55
2022-08-14T04:51:06.832Z,25.62
2022-08-14T04:53:42.943Z,25.67
2022-08-14T04:56:30.847Z,25.78
2022-08-14T04:59:10.614Z,25.91
2022-08-14T05:01:48.714Z,25.95
2022-08-14T05:04:21.389Z,25.93
2022-08-14T05:06:54.990Z,25.91
2022-08-14T05:09:29.305Z,25.96
2022-08-14T05:13:14.319Z,26.02
2022-08-14T05:14:55.517Z,26.02
2022-08-14T05:17:31.958Z,26.03
2022-08-14T05:33:33.697Z,26.07
2022-08-14T05:36:06.877Z,26.05
2022-08-14T05:38:48.364Z,25.92
2022-08-14T05:41:19.868Z,25.65
2022-08-14T05:43:52.802Z,25.77
2022-08-14T05:46:23.331Z,25.89
2022-08-14T05:48:55.317Z,25.82
2022-08-14T05:51:30.615Z,25.66
2022-08-14T05:54:11.419Z,25.79
2022-08-14T05:56:42.763Z,25.85
2022-08-14T05:59:14.302Z,25.84
2022-08-14T06:01:47.341Z,25.65
2022-08-14T06:04:21.707Z,25.88
2022-08-14T06:06:52.234Z,25.85
2022-08-14T06:09:23.817Z,25.83
2022-08-14T06:11:54.132Z,25.92
2022-08-14T06:14:24.994Z,26.10
2022-08-14T06:16:57.014Z,26.11
2022-08-14T06:19:28.231Z,26.22
2022-08-14T06:22:00.166Z,26.38
2022-08-14T06:24:34.886Z,26.54
2022-08-14T06:27:10.018Z,26.71
2022-08-14T06:29:41.588Z,26.41
2022-08-14T06:32:37.807Z,26.41
2022-08-14T06:35:12.278Z,26.46
2022-08-14T06:37:47.033Z,26.66
2022-08-14T06:40:26.707Z,26.37
2022-08-14T06:43:03.355Z,26.17
2022-08-14T06:45:35.006Z,26.29
2022-08-14T06:48:14.467Z,26.44
2022-08-14T06:50:48.092Z,26.55
2022-08-14T06:53:20.092Z,26.63
2022-08-14T06:55:58.299Z,26.68
2022-08-14T06:58:32.642Z,26.80
2022-08-14T07:01:27.765Z,27.01
2022-08-14T07:04:22.455Z,27.05
2022-08-14T07:06:54.755Z,27.06
2022-08-14T07:09:43.840Z,26.95
2022-08-14T07:12:54.283Z,26.70
2022-08-14T07:15:11.067Z,26.67
2022-08-14T07:17:52.265Z,26.67
2022-08-14T07:20:30.906Z,26.73
2022-08-14T07:23:08.671Z,26.87
2022-08-14T07:25:43.793Z,26.85
2022-08-14T07:28:20.153Z,26.90
2022-08-14T07:30:51.916Z,27.25
2022-08-14T07:33:29.349Z,27.53
2022-08-14T07:36:03.373Z,27.71
2022-08-14T07:38:53.249Z,26.62
2022-08-14T07:41:23.671Z,26.36
2022-08-14T07:43:55.746Z,26.73
2022-08-14T07:46:28.532Z,27.05
2022-08-14T07:49:00.400Z,27.13
2022-08-14T07:51:34.205Z,27.41
2022-08-14T07:54:11.195Z,27.55
2022-08-14T07:56:47.582Z,27.57
2022-08-14T07:59:40.575Z,27.45
2022-08-14T08:02:17.302Z,27.60
2022-08-14T08:04:54.503Z,27.75
2022-08-14T08:07:29.851Z,27.61
2022-08-14T08:10:46.837Z,27.23
2022-08-14T08:13:17.487Z,27.50
2022-08-14T08:15:49.288Z,27.64
2022-08-14T08:18:20.583Z,27.64
2022-08-14T08:21:00.705Z,27.75
2022-08-14T08:23:40.752Z,27.86
2022-08-14T08:26:21.174Z,28.06
2022-08-14T08:28:58.097Z,28.21
2022-08-14T08:31:33.067Z,28.33
2022-08-14T08:34:07.563Z,28.47
2022-08-14T08:36:46.789Z,28.64
2022-08-14T08:39:21.981Z,28.72
2022-08-14T08:41:53.977Z,28.73
2022-08-14T08:44:33.018Z,28.75
2022-08-14T08:47:08.057Z,28.77
2022-08-14T08:49:59.307Z,28.40
2022-08-14T08:52:31.233Z,28.04
2022-08-14T08:55:04.436Z,28.36
2022-08-14T08:57:38.007Z,28.47
2022-08-14T09:00:24.312Z,28.60
2022-08-14T09:02:57.514Z,28.66
2022-08-14T09:05:29.003Z,28.45
2022-08-14T09:08:26.694Z,27.67
2022-08-14T09:11:02.503Z,26.82
2022-08-14T09:13:49.818Z,27.43
2022-08-14T09:16:23.677Z,28.35
2022-08-14T09:18:56.184Z,27.97
2022-08-14T09:21:31.101Z,27.30
2022-08-14T09:24:28.368Z,27.10
2022-08-14T09:26:53.274Z,28.03
2022-08-14T09:29:23.947Z,28.61
2022-08-14T09:32:01.767Z,28.31
2022-08-14T09:34:40.193Z,27.56
2022-08-14T09:37:36.120Z,27.00
2022-08-14T09:40:20.594Z,27.49
2022-08-14T09:42:56.033Z,28.13
2022-08-14T09:45:40.063Z,27.67
2022-08-14T09:48:29.966Z,27.14
2022-08-14T09:54:19.207Z,27.57
2022-08-14T09:56:57.118Z,28.69
2022-08-14T09:59:40.673Z,28.50
2022-08-14T10:02:27.850Z,27.75
2022-08-14T10:05:02.617Z,27.16
2022-08-14T10:07:35.198Z,26.79
2022-08-14T10:10:23.170Z,26.80
2022-08-14T10:12:58.401Z,27.81
2022-08-14T10:15:30.416Z,28.28
2022-08-14T10:18:09.552Z,27.80
2022-08-14T10:20:55.932Z,27.31
2022-08-14T10:23:30.049Z,27.02
2022-08-14T10:26:08.267Z,26.86
2022-08-14T10:29:18.273Z,26.81
2022-08-14T10:31:44.714Z,26.76
2022-08-14T10:34:25.955Z,26.73
2022-08-14T10:37:14.887Z,26.78
2022-08-14T10:40:05.298Z,26.81
2022-08-14T10:42:41.623Z,26.98
2022-08-14T10:45:21.951Z,27.90
2022-08-14T10:48:09.657Z,28.19
2022-08-14T10:50:50.509Z,27.79
2022-08-14T10:53:32.967Z,27.65
2022-08-14T10:56:07.129Z,27.68
2022-08-14T10:59:01.631Z,27.67
2022-08-14T11:01:40.848Z,27.50
2022-08-14T11:04:25.368Z,27.30
2022-08-14T11:06:57.879Z,27.13
2022-08-14T11:09:32.146Z,27.01
2022-08-14T11:12:34.224Z,26.92
2022-08-14T11:14:59.097Z,26.86
2022-08-14T11:17:33.388Z,26.87
2022-08-14T11:20:05.955Z,26.93
2022-08-14T11:22:52.967Z,26.98
2022-08-14T11:25:36.874Z,26.97
2022-08-14T11:28:19.393Z,27.01
2022-08-14T11:30:54.172Z,27.07
2022-08-14T11:33:26.286Z,27.14
2022-08-14T11:36:00.759Z,27.17
2022-08-14T11:38:37.993Z,27.24
2022-08-14T11:41:09.373Z,27.42
2022-08-14T11:43:49.461Z,27.55
2022-08-14T11:46:30.539Z,27.64
2022-08-14T11:49:10.813Z,27.70
2022-08-14T11:51:54.419Z,27.71
2022-08-14T11:54:34.511Z,27.68
2022-08-14T11:57:06.544Z,27.62
2022-08-14T11:59:38.544Z,27.56
2022-08-14T12:02:39.019Z,27.48
2022-08-14T12:05:09.318Z,27.34
2022-08-14T12:07:50.403Z,27.23
2022-08-14T12:10:25.488Z,27.21
2022-08-14T12:12:58.287Z,27.29
2022-08-14T12:15:32.789Z,27.38
2022-08-14T12:18:04.650Z,27.42
2022-08-14T12:20:37.697Z,27.49
2022-08-14T12:23:23.727Z,27.53
2022-08-14T12:26:12.151Z,27.64
2022-08-14T12:29:05.849Z,28.23
2022-08-14T12:31:44.472Z,28.82
2022-08-14T12:34:20.438Z,29.24
2022-08-14T12:37:02.624Z,29.53
2022-08-14T12:39:39.626Z,29.81
2022-08-14T12:42:11.998Z,30.08
2022-08-14T12:45:04.102Z,30.28
2022-08-14T12:47:35.278Z,30.43
2022-08-14T12:50:06.350Z,30.43
2022-08-14T12:52:47.326Z,30.37
2022-08-14T12:55:32.783Z,30.24
2022-08-14T12:58:29.649Z,30.32
2022-08-14T13:01:16.791Z,30.62
2022-08-14T13:03:51.770Z,30.98
2022-08-14T13:06:27.646Z,31.29
2022-08-14T13:09:00.017Z,31.67
2022-08-14T13:11:41.113Z,32.17
2022-08-14T13:14:17.339Z,32.65
2022-08-14T13:16:50.227Z,33.02
2022-08-14T13:19:24.331Z,33.28
2022-08-14T13:22:04.884Z,33.27
2022-08-14T13:24:39.437Z,32.72
2022-08-14T13:27:11.189Z,31.92
2022-08-14T13:29:46.542Z,31.09
2022-08-14T13:32:18.892Z,30.36
2022-08-14T13:34:52.779Z,30.38
2022-08-14T13:37:24.195Z,30.87
2022-08-14T13:39:56.636Z,31.44
2022-08-14T13:42:30.563Z,31.97
2022-08-14T13:45:02.941Z,32.48
2022-08-14T13:47:35.239Z,32.84
2022-08-14T13:50:08.335Z,33.07
2022-08-14T13:52:52.614Z,33.17
2022-08-14T13:55:28.559Z,33.06
2022-08-14T13:58:03.994Z,32.96
2022-08-14T14:00:51.819Z,33.15
2022-08-14T14:03:30.387Z,33.47
2022-08-14T14:06:03.826Z,33.50
2022-08-14T14:08:47.564Z,33.23
2022-08-14T14:11:21.209Z,33.31
2022-08-14T14:13:51.957Z,33.76
2022-08-14T14:16:30.088Z,34.19
2022-08-14T14:19:10.450Z,34.52
2022-08-14T14:21:42.068Z,34.69
2022-08-14T14:24:15.273Z,34.77
2022-08-14T14:26:50.128Z,34.30
2022-08-14T14:29:24.221Z,33.73
2022-08-14T14:31:58.745Z,33.46
2022-08-14T14:34:34.738Z,33.25
2022-08-14T14:37:06.973Z,33.47
2022-08-14T14:40:53.927Z,33.88
2022-08-14T14:42:32.227Z,34.13
2022-08-14T14:45:07.824Z,34.22
2022-08-14T14:47:39.262Z,34.30
2022-08-14T14:50:11.414Z,34.21
2022-08-14T14:52:42.509Z,34.01
2022-08-14T14:55:16.814Z,34.12
2022-08-14T14:57:52.022Z,34.35
2022-08-14T15:00:25.535Z,34.69
2022-08-14T15:03:01.560Z,34.99
2022-08-14T15:05:33.141Z,35.25
2022-08-14T15:08:04.012Z,35.36
2022-08-14T15:10:39.982Z,35.04
2022-08-14T15:13:11.175Z,34.40
2022-08-14T15:15:43.464Z,33.78
2022-08-14T15:18:36.320Z,33.31
2022-08-14T15:21:04.351Z,33.13
2022-08-14T15:23:44.008Z,33.03
2022-08-14T15:26:24.070Z,32.73
2022-08-14T15:29:05.632Z,32.32
2022-08-14T15:31:37.521Z,31.84
2022-08-14T15:34:43.194Z,31.47
2022-08-14T15:37:03.612Z,31.14
2022-08-14T15:39:35.725Z,30.68
2022-08-14T15:42:16.220Z,30.19
2022-08-14T15:44:58.048Z,29.78
2022-08-14T15:47:33.119Z,29.43
2022-08-14T15:50:08.745Z,29.12
2022-08-14T15:52:44.747Z,28.78
2022-08-14T15:55:16.411Z,28.46
2022-08-14T15:58:02.581Z,28.28
2022-08-14T16:00:54.658Z,28.10
2022-08-14T16:03:34.557Z,28.00
2022-08-14T16:06:11.182Z,27.92
2022-08-14T16:08:46.540Z,27.87
2022-08-14T16:11:20.555Z,27.80
2022-08-14T16:13:57.649Z,27.69
2022-08-14T16:16:48.142Z,27.57
2022-08-14T16:19:23.695Z,27.44
2022-08-14T16:22:01.426Z,27.35
2022-08-14T16:25:00.134Z,27.25
2022-08-14T16:27:37.910Z,27.17
2022-08-14T16:30:25.025Z,27.08
2022-08-14T16:32:59.301Z,26.98
2022-08-14T16:35:41.894Z,26.89
2022-08-14T16:38:45.716Z,26.79
2022-08-14T16:41:23.224Z,26.69
2022-08-14T16:43:59.210Z,26.62
2022-08-14T16:46:32.877Z,26.58
2022-08-14T16:49:05.473Z,26.57
2022-08-14T16:51:39.820Z,26.51
2022-08-14T16:54:33.980Z,26.44
2022-08-14T16:57:16.374Z,26.39
2022-08-14T16:59:52.836Z,26.32
2022-08-14T17:02:36.288Z,26.22
2022-08-14T17:05:24.000Z,26.10
2022-08-14T17:08:32.613Z,25.97
2022-08-14T17:11:09.865Z,25.87
2022-08-14T17:13:57.760Z,25.79
2022-08-14T17:16:37.148Z,25.72
2022-08-14T17:19:13.804Z,25.65
2022-08-14T17:21:47.449Z,25.56
2022-08-14T17:24:56.885Z,25.48
2022-08-14T17:27:10.911Z,25.40
2022-08-14T17:29:58.750Z,25.69
2022-08-14T17:32:56.782Z,26.86
2022-08-14T17:35:58.030Z,27.44
2022-08-14T17:38:38.513Z,26.87
2022-08-14T17:41:32.822Z,26.35
2022-08-14T17:44:20.153Z,26.00
2022-08-14T17:46:56.999Z,25.75
2022-08-14T17:49:31.977Z,25.57
2022-08-14T17:52:07.615Z,25.68
2022-08-14T17:54:52.945Z,26.78
2022-08-14T17:57:40.658Z,27.19
2022-08-14T18:00:14.834Z,26.66
2022-08-14T18:02:50.708Z,26.17
2022-08-14T18:06:08.448Z,25.81
2022-08-14T18:08:32.886Z,25.88
2022-08-14T18:11:07.413Z,27.04
2022-08-14T18:13:50.794Z,27.54
2022-08-14T18:16:22.949Z,26.92
2022-08-14T18:18:53.698Z,26.30
2022-08-14T18:21:56.881Z,25.85
2022-08-14T18:24:28.736Z,25.85
2022-08-14T18:27:09.451Z,26.87
2022-08-14T18:29:54.758Z,27.41
2022-08-14T18:32:47.262Z,26.80
2022-08-14T18:35:46.037Z,26.05
2022-08-14T18:38:25.805Z,25.91
2022-08-14T18:41:18.468Z,26.85
2022-08-14T18:43:59.109Z,27.57
2022-08-14T18:47:00.187Z,27.80
2022-08-14T18:49:21.488Z,26.94
2022-08-14T18:51:53.345Z,26.23
2022-08-14T18:54:33.006Z,25.72
2022-08-14T18:57:05.840Z,25.71
2022-08-14T18:59:43.272Z,26.63
2022-08-14T19:02:42.371Z,27.35
2022-08-14T19:05:14.301Z,27.51
2022-08-14T19:07:48.407Z,26.79
2022-08-14T19:10:31.868Z,26.06
2022-08-14T19:13:11.825Z,25.86
2022-08-14T19:15:44.003Z,26.74
2022-08-14T19:18:32.531Z,27.39
2022-08-14T19:21:23.999Z,27.57
2022-08-14T19:24:27.114Z,26.77
2022-08-14T19:26:56.479Z,25.94
2022-08-14T19:29:37.920Z,25.46
2022-08-14T19:32:24.068Z,25.43
2022-08-14T19:34:54.960Z,26.40
2022-08-14T19:37:52.288Z,27.10
2022-08-14T19:40:34.254Z,27.55
2022-08-14T19:43:09.100Z,27.50
2022-08-14T19:45:40.490Z,26.73
2022-08-14T19:48:15.861Z,25.97
2022-08-14T19:50:47.488Z,25.67
2022-08-14T19:53:18.479Z,26.45
2022-08-14T19:55:58.650Z,27.12
2022-08-14T19:58:55.212Z,27.53
2022-08-14T20:01:37.696Z,27.39
2022-08-14T20:04:44.850Z,26.54
2022-08-14T20:07:04.381Z,25.76
2022-08-14T20:11:04.011Z,26.11
2022-08-14T20:12:36.462Z,26.82
2022-08-14T20:15:27.902Z,27.30
2022-08-14T20:18:48.772Z,27.24
2022-08-14T20:21:17.000Z,26.32
2022-08-14T20:23:49.463Z,25.83
2022-08-14T20:26:31.308Z,26.44
2022-08-14T20:29:07.193Z,27.11
2022-08-14T20:31:39.898Z,27.46
2022-08-14T20:34:24.954Z,27.43
2022-08-14T20:37:09.880Z,26.53
2022-08-14T20:39:43.559Z,25.72
2022-08-14T20:42:35.119Z,25.47
2022-08-14T20:45:23.827Z,26.38
2022-08-14T20:47:58.571Z,27.01
2022-08-14T20:50:32.246Z,27.33
2022-08-14T20:53:05.637Z,27.47
2022-08-14T20:55:41.644Z,27.41
2022-08-14T20:58:42.176Z,26.51
2022-08-14T21:01:32.644Z,25.80
2022-08-14T21:04:12.078Z,26.28
2022-08-14T21:07:24.462Z,26.53
2022-08-14T21:10:05.060Z,26.70
2022-08-14T21:12:35.768Z,26.88
2022-08-14T21:15:10.176Z,26.92
2022-08-14T21:17:43.269Z,26.34
2022-08-14T21:20:26.547Z,25.38
2022-08-14T21:23:01.300Z,25.36
2022-08-14T21:25:32.558Z,25.95
2022-08-14T21:28:06.242Z,26.35
2022-08-14T21:30:50.972Z,26.56
2022-08-14T21:33:23.680Z,26.72
2022-08-14T21:35:55.569Z,26.85
2022-08-14T21:38:33.964Z,26.59
2022-08-14T21:41:42.371Z,25.64
2022-08-14T21:44:17.386Z,25.09
2022-08-14T21:46:53.333Z,25.76
2022-08-14T21:49:33.818Z,26.24
2022-08-14T21:52:51.764Z,26.53
2022-08-14T21:55:09.569Z,26.52
2022-08-14T21:58:38.394Z,25.73
2022-08-14T22:00:39.677Z,24.88
2022-08-14T22:03:17.341Z,25.42
2022-08-14T22:05:50.045Z,25.94
2022-08-14T22:08:26.615Z,26.19
2022-08-14T22:10:59.087Z,26.39
2022-08-14T22:13:32.540Z,26.47
2022-08-14T22:16:03.516Z,26.31
2022-08-14T22:18:34.417Z,25.42
2022-08-14T22:21:08.263Z,24.78
2022-08-14T22:23:47.453Z,25.35
2022-08-14T22:26:22.701Z,25.89
2022-08-14T22:29:01.321Z,26.23
2022-08-14T22:31:35.059Z,26.38
